Time;durP1;ratioP1;P1;durP2;ratioP2;P2;SDS_P1;SDS_P2;PMS_P1;PMS_P2;Temp;Humidity;BMP_temperature;BMP_pressure;BME280_temperature;BME280_humidity;BME280_pressure;Samples;Min_cycle;Max_cycle;Signal;HPM_P1;HPM_P2
2022/10/20 00:00:21;;;;;;;20.13;18.43;;;11.00;99.90;;;;;;5029504;28;20233;-81
2022/10/20 00:02:48;;;;;;;19.97;18.37;;;11.00;99.90;;;;;;5026674;28;20209;-81
2022/10/20 00:05:29;;;;;;;20.53;18.93;;;10.90;99.90;;;;;;5021637;28;20200;-82
2022/10/20 00:08:17;;;;;;;23.17;21.17;;;10.90;99.90;;;;;;5016873;28;20205;-82
2022/10/20 00:13:55;;;;;;;22.50;20.50;;;10.80;99.90;;;;;;5019420;28;20254;-81
2022/10/20 00:16:37;;;;;;;22.50;20.60;;;10.80;99.90;;;;;;5023302;28;20248;-81
2022/10/20 00:19:17;;;;;;;22.23;20.33;;;10.80;99.90;;;;;;5017121;28;20220;-82
2022/10/20 00:24:48;;;;;;;21.67;19.87;;;10.70;99.90;;;;;;5016558;28;20188;-82
2022/10/20 00:27:34;;;;;;;20.27;18.67;;;10.70;99.90;;;;;;5026719;28;20200;-82
2022/10/20 00:30:13;;;;;;;21.07;19.33;;;10.70;99.90;;;;;;5029439;28;20237;-82
2022/10/20 00:32:54;;;;;;;21.37;19.47;;;10.70;99.90;;;;;;5021517;28;20656;-82
2022/10/20 00:35:38;;;;;;;21.77;19.97;;;10.60;99.90;;;;;;5029693;28;20669;-82
2022/10/20 00:38:18;;;;;;;20.73;18.90;;;10.60;99.90;;;;;;5015743;28;20214;-81
2022/10/20 00:40:51;;;;;;;19.63;18.13;;;10.60;99.90;;;;;;5023390;28;20223;-81
2022/10/20 00:43:24;;;;;;;21.70;19.63;;;10.50;99.90;;;;;;5025545;28;20217;-81
2022/10/20 00:51:48;;;;;;;19.30;17.80;;;10.50;99.90;;;;;;5015127;28;20688;-84
2022/10/20 00:54:19;;;;;;;21.00;19.23;;;10.40;99.90;;;;;;5023617;28;20211;-82
2022/10/20 00:56:51;;;;;;;21.47;19.40;;;10.40;99.90;;;;;;5023643;28;20239;-83
2022/10/20 00:59:32;;;;;;;21.97;19.90;;;10.40;99.90;;;;;;5025774;28;20222;-82
2022/10/20 01:02:15;;;;;;;19.43;17.83;;;10.40;99.90;;;;;;5029373;28;20218;-82
2022/10/20 01:04:49;;;;;;;20.10;18.40;;;10.40;99.90;;;;;;5023622;28;20211;-82
2022/10/20 01:07:23;;;;;;;20.80;19.20;;;10.40;99.90;;;;;;5022056;28;20201;-82
2022/10/20 01:09:55;;;;;;;19.00;17.53;;;10.40;99.90;;;;;;5023798;28;20234;-82
2022/10/20 01:12:37;;;;;;;20.20;18.60;;;10.30;99.90;;;;;;5027723;28;20739;-82
2022/10/20 01:15:18;;;;;;;20.17;18.63;;;10.30;99.90;;;;;;5021883;28;20205;-82
2022/10/20 01:17:55;;;;;;;20.20;18.60;;;10.30;99.90;;;;;;5025465;28;20201;-82
2022/10/20 01:21:12;;;;;;;21.67;19.70;;;10.30;99.90;;;;;;5027616;28;20212;-82
2022/10/20 01:24:22;;;;;;;21.40;19.60;;;10.30;99.90;;;;;;5022132;28;20197;-81
2022/10/20 01:27:59;;;;;;;21.37;19.57;;;10.40;99.90;;;;;;5013668;28;20211;-82
2022/10/20 01:30:29;;;;;;;22.17;20.27;;;10.40;99.90;;;;;;5012304;28;20255;-82
2022/10/20 01:33:17;;;;;;;21.87;19.93;;;10.40;99.90;;;;;;5028341;28;20199;-82
2022/10/20 01:36:01;;;;;;;22.27;20.17;;;10.40;99.90;;;;;;5023662;28;20243;-82
2022/10/20 01:38:44;;;;;;;21.57;19.70;;;10.40;99.90;;;;;;5019403;28;20212;-82
2022/10/20 01:41:18;;;;;;;21.97;20.00;;;10.40;99.90;;;;;;5025713;28;20262;-82
2022/10/20 01:43:57;;;;;;;21.87;19.87;;;10.40;99.90;;;;;;5022795;28;20215;-82
2022/10/20 01:46:32;;;;;;;22.17;19.97;;;10.40;99.90;;;;;;5029577;28;20188;-82
2022/10/20 01:49:06;;;;;;;21.93;20.03;;;10.40;99.90;;;;;;5025675;28;20605;-82
2022/10/20 01:51:46;;;;;;;22.93;20.80;;;10.40;99.90;;;;;;5021165;28;20192;-82
2022/10/20 01:54:32;;;;;;;22.97;20.73;;;10.50;99.90;;;;;;5027889;28;20207;-82
2022/10/20 01:57:15;;;;;;;21.23;19.50;;;10.50;99.90;;;;;;5024055;28;20192;-82
2022/10/20 02:00:02;;;;;;;20.83;19.03;;;10.50;99.90;;;;;;5024329;28;20685;-82
2022/10/20 02:03:01;;;;;;;21.53;19.43;;;10.50;99.90;;;;;;5011578;28;20579;-82
2022/10/20 02:05:45;;;;;;;21.10;19.37;;;10.50;99.90;;;;;;5019602;28;20298;-82
2022/10/20 02:08:20;;;;;;;21.47;19.67;;;10.60;99.90;;;;;;5026788;28;20199;-83
2022/10/20 02:10:51;;;;;;;23.27;20.53;;;10.60;99.90;;;;;;5020152;28;20197;-82
2022/10/20 02:13:25;;;;;;;20.53;18.73;;;10.70;99.90;;;;;;5026005;28;20215;-82
2022/10/20 02:15:57;;;;;;;20.80;18.93;;;10.70;99.90;;;;;;5022965;28;20222;-82
2022/10/20 02:18:33;;;;;;;20.13;18.63;;;10.70;99.90;;;;;;5019654;28;20672;-82
2022/10/20 02:21:15;;;;;;;20.80;18.97;;;10.70;99.90;;;;;;5023386;28;20564;-82
2022/10/20 02:23:45;;;;;;;19.63;18.03;;;10.70;99.90;;;;;;5012962;28;20205;-82
2022/10/20 02:26:24;;;;;;;20.27;18.67;;;10.70;99.90;;;;;;5025551;28;20699;-82
2022/10/20 02:28:59;;;;;;;22.43;20.53;;;10.70;99.90;;;;;;5023493;28;20223;-82
2022/10/20 02:31:35;;;;;;;20.73;19.03;;;10.80;99.90;;;;;;5019604;28;20552;-82
2022/10/20 02:34:19;;;;;;;19.90;18.40;;;10.80;99.90;;;;;;5017281;28;20742;-83
2022/10/20 02:37:00;;;;;;;21.43;19.67;;;10.80;99.90;;;;;;5023163;28;20726;-82
2022/10/20 02:39:29;;;;;;;21.93;20.00;;;10.80;99.90;;;;;;5027546;28;20687;-82
2022/10/20 02:42:25;;;;;;;21.97;20.03;;;10.80;99.90;;;;;;5012121;28;20209;-83
2022/10/20 02:44:52;;;;;;;22.00;19.93;;;10.70;99.90;;;;;;5008450;28;20206;-83
2022/10/20 02:47:23;;;;;;;21.57;19.77;;;10.70;99.90;;;;;;5020485;28;20257;-83
2022/10/20 02:49:52;;;;;;;21.30;19.50;;;10.70;99.90;;;;;;5015943;28;20213;-83
2022/10/20 02:52:20;;;;;;;22.47;20.47;;;10.70;99.90;;;;;;5034520;27;20212;-81
2022/10/20 02:54:47;;;;;;;20.00;18.40;;;10.70;99.90;;;;;;5059973;27;20246;-84
2022/10/20 02:57:14;;;;;;;21.77;19.73;;;10.60;99.90;;;;;;5025357;28;20194;-83
2022/10/20 02:59:41;;;;;;;22.10;20.07;;;10.60;99.90;;;;;;5039104;27;20216;-83
2022/10/20 03:02:09;;;;;;;21.90;20.10;;;10.60;99.90;;;;;;5036799;27;20296;-84
2022/10/20 03:04:37;;;;;;;21.10;19.17;;;10.50;99.90;;;;;;5020486;28;20228;-84
2022/10/20 03:07:04;;;;;;;22.10;20.00;;;10.50;99.90;;;;;;5027528;28;20216;-83
2022/10/20 03:09:31;;;;;;;20.93;19.30;;;10.50;99.90;;;;;;5022007;28;20571;-83
2022/10/20 03:11:58;;;;;;;23.07;21.00;;;10.50;99.90;;;;;;5021022;28;20194;-84
2022/10/20 03:14:25;;;;;;;22.40;20.53;;;10.50;99.90;;;;;;5035336;27;20196;-83
2022/10/20 03:16:56;;;;;;;22.27;20.40;;;10.50;99.90;;;;;;5025852;28;20196;-84
2022/10/20 03:19:23;;;;;;;21.27;19.57;;;10.40;99.90;;;;;;5026763;28;20251;-84
2022/10/20 03:21:51;;;;;;;21.40;19.70;;;10.50;99.90;;;;;;5031909;28;20210;-83
2022/10/20 03:24:20;;;;;;;23.20;21.30;;;10.40;99.90;;;;;;5021639;28;20649;-83
2022/10/20 03:26:47;;;;;;;22.10;20.20;;;10.50;99.90;;;;;;5020121;28;20197;-83
2022/10/20 03:29:14;;;;;;;22.80;20.73;;;10.50;99.90;;;;;;5023156;28;20633;-82
2022/10/20 03:31:40;;;;;;;22.47;20.57;;;10.50;99.90;;;;;;5027104;28;20211;-83
2022/10/20 03:34:08;;;;;;;24.00;21.83;;;10.50;99.90;;;;;;5028786;28;20241;-82
2022/10/20 03:37:00;;;;;;;22.67;20.77;;;10.50;99.90;;;;;;5025158;28;20204;-83
2022/10/20 03:39:27;;;;;;;22.67;20.77;;;10.50;99.90;;;;;;5021880;28;20622;-83
2022/10/20 03:41:56;;;;;;;23.37;21.37;;;10.60;99.90;;;;;;5026571;28;20201;-83
2022/10/20 03:44:23;;;;;;;23.83;21.67;;;10.50;99.90;;;;;;5029938;28;20582;-83
2022/10/20 03:46:50;;;;;;;23.63;21.67;;;10.50;99.90;;;;;;5016803;28;20669;-82
2022/10/20 03:49:17;;;;;;;23.50;21.50;;;10.50;99.90;;;;;;5022448;28;20228;-83
2022/10/20 03:51:44;;;;;;;22.77;20.90;;;10.50;99.90;;;;;;5030221;28;20648;-83
2022/10/20 03:54:12;;;;;;;25.20;23.07;;;10.50;99.90;;;;;;5024758;28;20562;-83
2022/10/20 03:56:39;;;;;;;23.33;21.33;;;10.50;99.90;;;;;;5023852;28;20188;-83
2022/10/20 03:59:06;;;;;;;24.83;22.83;;;10.40;99.90;;;;;;5023569;28;20752;-83
2022/10/20 04:01:34;;;;;;;23.13;21.33;;;10.40;99.90;;;;;;5032768;28;20307;-83
2022/10/20 04:04:01;;;;;;;23.20;21.40;;;10.50;99.90;;;;;;5025867;28;20209;-83
2022/10/20 04:06:28;;;;;;;23.77;21.97;;;10.50;99.90;;;;;;5024710;28;20672;-83
2022/10/20 04:08:55;;;;;;;24.37;22.17;;;10.50;99.90;;;;;;5034333;28;20216;-84
2022/10/20 04:11:25;;;;;;;26.53;24.13;;;10.50;99.90;;;;;;5028105;28;20225;-83
2022/10/20 04:13:52;;;;;;;25.03;22.90;;;10.50;99.90;;;;;;5019981;28;20224;-83
2022/10/20 04:16:19;;;;;;;26.17;23.97;;;10.50;99.90;;;;;;5028851;28;20208;-83
2022/10/20 04:18:46;;;;;;;25.37;23.20;;;10.50;99.90;;;;;;5027598;28;20751;-84
2022/10/20 04:21:13;;;;;;;25.33;23.10;;;10.50;99.90;;;;;;5026076;28;20235;-83
2022/10/20 04:23:42;;;;;;;19.73;17.73;;;10.50;99.90;;;;;;5032740;28;20550;-83
2022/10/20 04:26:10;;;;;;;21.70;19.70;;;10.50;99.90;;;;;;5033124;28;20205;-84
2022/10/20 04:28:39;;;;;;;18.30;16.43;;;10.50;99.90;;;;;;5027532;28;20236;-83
2022/10/20 04:31:07;;;;;;;27.20;24.77;;;10.50;99.90;;;;;;5025927;28;20200;-83
2022/10/20 04:33:34;;;;;;;26.20;24.00;;;10.60;99.90;;;;;;5027251;28;20209;-83
2022/10/20 04:36:02;;;;;;;24.67;22.67;;;10.50;99.90;;;;;;5026928;28;20202;-84
2022/10/20 04:38:30;;;;;;;24.53;22.50;;;10.50;99.90;;;;;;5021358;28;20197;-84
2022/10/20 04:40:57;;;;;;;25.00;22.87;;;10.50;99.90;;;;;;5030269;28;20240;-84
2022/10/20 04:43:24;;;;;;;23.33;21.50;;;10.50;99.90;;;;;;5032471;28;20193;-84
2022/10/20 04:45:57;;;;;;;26.37;23.93;;;10.50;99.90;;;;;;5027936;28;20212;-84
2022/10/20 04:48:24;;;;;;;25.87;23.77;;;10.50;99.90;;;;;;5035375;28;20209;-83
2022/10/20 04:51:00;;;;;;;25.87;23.67;;;10.50;99.90;;;;;;5028145;28;20194;-84
2022/10/20 04:53:26;;;;;;;27.00;24.30;;;10.50;99.90;;;;;;5034932;28;20599;-84
2022/10/20 04:55:57;;;;;;;25.50;23.10;;;10.60;99.90;;;;;;5034336;28;20201;-84
2022/10/20 04:58:25;;;;;;;26.13;23.83;;;10.60;99.90;;;;;;5029772;28;20207;-84
2022/10/20 05:00:53;;;;;;;26.67;24.03;;;10.60;99.90;;;;;;5025218;28;20614;-86
2022/10/20 05:03:20;;;;;;;24.80;22.70;;;10.60;99.90;;;;;;5040820;28;20248;-83
2022/10/20 05:05:47;;;;;;;25.93;23.63;;;10.60;99.90;;;;;;5038410;28;20192;-82
2022/10/20 05:08:17;;;;;;;25.53;23.20;;;10.60;99.90;;;;;;5035731;28;20313;-84
2022/10/20 05:10:43;;;;;;;28.23;25.63;;;10.60;99.90;;;;;;5036870;28;20217;-83
2022/10/20 05:13:11;;;;;;;26.90;24.50;;;10.60;99.90;;;;;;5030078;28;20328;-82
2022/10/20 05:15:37;;;;;;;27.70;25.30;;;10.60;99.90;;;;;;5027814;28;20204;-83
2022/10/20 05:18:06;;;;;;;26.33;23.93;;;10.60;99.90;;;;;;5025838;28;20276;-83
2022/10/20 05:20:33;;;;;;;26.73;24.43;;;10.60;99.90;;;;;;5023764;28;20200;-83
2022/10/20 05:22:59;;;;;;;28.23;25.73;;;10.60;99.90;;;;;;5021606;28;20196;-83
2022/10/20 05:25:26;;;;;;;26.20;24.00;;;10.50;99.90;;;;;;5033387;28;20275;-84
2022/10/20 05:27:53;;;;;;;26.17;23.90;;;10.50;99.90;;;;;;5035879;28;20184;-85
2022/10/20 05:30:20;;;;;;;26.40;24.03;;;10.50;99.90;;;;;;5032960;28;20712;-83
2022/10/20 05:32:47;;;;;;;26.33;24.07;;;10.50;99.90;;;;;;5027060;28;20631;-82
2022/10/20 05:35:16;;;;;;;26.23;23.83;;;10.40;99.90;;;;;;5034280;28;20200;-83
2022/10/20 05:37:43;;;;;;;26.43;23.97;;;10.40;99.90;;;;;;5015916;28;20197;-83
2022/10/20 05:40:11;;;;;;;27.10;24.80;;;10.40;99.90;;;;;;5031742;28;20226;-83
2022/10/20 05:42:38;;;;;;;24.30;22.30;;;10.40;99.90;;;;;;5036034;28;20215;-84
2022/10/20 05:45:06;;;;;;;24.60;22.70;;;10.40;99.90;;;;;;5033588;28;20210;-84
2022/10/20 05:47:33;;;;;;;24.43;22.33;;;10.30;99.90;;;;;;5037086;28;20215;-84
2022/10/20 05:50:00;;;;;;;23.57;21.47;;;10.30;99.90;;;;;;5024051;28;20255;-84
2022/10/20 05:52:31;;;;;;;25.10;22.90;;;10.40;99.90;;;;;;5019084;28;20200;-83
2022/10/20 05:54:58;;;;;;;24.13;22.00;;;10.40;99.90;;;;;;5024948;28;20200;-84
2022/10/20 05:57:25;;;;;;;25.20;23.07;;;10.40;99.90;;;;;;5023147;28;20206;-84
2022/10/20 05:59:52;;;;;;;25.30;23.10;;;10.50;99.90;;;;;;5031145;28;20394;-84
2022/10/20 06:02:20;;;;;;;25.20;23.03;;;10.50;99.90;;;;;;5027994;28;20236;-84
2022/10/20 06:04:47;;;;;;;19.27;17.37;;;10.50;99.90;;;;;;5028917;28;20197;-85
2022/10/20 06:07:14;;;;;;;22.20;20.07;;;10.50;99.90;;;;;;5029456;28;20200;-84
2022/10/20 06:09:42;;;;;;;20.97;18.87;;;10.50;99.90;;;;;;5027103;28;20244;-83
2022/10/20 06:12:09;;;;;;;19.73;17.87;;;10.50;99.90;;;;;;5020848;28;20192;-84
2022/10/20 06:14:36;;;;;;;19.97;18.07;;;10.60;99.90;;;;;;5024262;28;20197;-84
2022/10/20 06:17:03;;;;;;;20.00;17.90;;;10.60;99.90;;;;;;5025125;28;20196;-83
2022/10/20 06:19:29;;;;;;;20.47;18.57;;;10.60;99.90;;;;;;5027477;28;20212;-84
2022/10/20 06:21:56;;;;;;;19.17;17.50;;;10.70;99.90;;;;;;5028895;28;20216;-84
2022/10/20 06:24:23;;;;;;;21.33;19.43;;;10.70;99.90;;;;;;5039336;28;20695;-84
2022/10/20 06:26:52;;;;;;;18.63;16.80;;;10.70;99.90;;;;;;5028872;28;20200;-83
2022/10/20 06:29:19;;;;;;;19.77;17.70;;;10.80;99.90;;;;;;5027180;28;20236;-84
2022/10/20 06:31:48;;;;;;;19.43;17.63;;;10.80;99.90;;;;;;5027747;28;20185;-84
2022/10/20 06:34:17;;;;;;;16.77;15.27;;;10.80;99.90;;;;;;5029772;28;20684;-84
2022/10/20 06:36:45;;;;;;;15.33;13.97;;;10.80;99.90;;;;;;5024477;28;20193;-84
2022/10/20 06:39:14;;;;;;;16.03;14.53;;;10.90;99.90;;;;;;5029363;28;20711;-84
2022/10/20 06:41:42;;;;;;;17.87;16.13;;;10.90;99.90;;;;;;5025672;28;20644;-84
2022/10/20 06:44:21;;;;;;;15.67;14.17;;;11.00;99.90;;;;;;5024563;28;20208;-84
2022/10/20 06:46:48;;;;;;;16.60;14.90;;;11.10;99.90;;;;;;5023070;28;20232;-84
2022/10/20 06:49:15;;;;;;;17.07;15.43;;;11.20;99.90;;;;;;5028043;28;20212;-84
2022/10/20 06:51:42;;;;;;;16.53;14.87;;;11.30;99.90;;;;;;5025774;28;20194;-84
2022/10/20 06:54:09;;;;;;;15.07;13.63;;;11.30;99.90;;;;;;5024513;28;20209;-84
2022/10/20 06:56:37;;;;;;;15.40;13.90;;;11.40;99.90;;;;;;5026579;28;20288;-84
2022/10/20 06:59:04;;;;;;;14.03;12.73;;;11.40;99.90;;;;;;5024447;28;20236;-84
2022/10/20 07:01:33;;;;;;;15.43;14.00;;;11.50;99.90;;;;;;5028868;28;20610;-84
2022/10/20 07:04:03;;;;;;;15.37;13.97;;;11.60;99.90;;;;;;5028169;28;20582;-84
2022/10/20 07:06:33;;;;;;;15.03;13.73;;;11.60;99.90;;;;;;5025330;28;20208;-84
2022/10/20 07:09:02;;;;;;;15.30;14.00;;;11.70;99.90;;;;;;5032544;28;20229;-84
2022/10/20 07:11:30;;;;;;;16.57;14.97;;;11.70;99.90;;;;;;5040605;27;20240;-84
2022/10/20 07:13:59;;;;;;;15.73;14.33;;;11.80;99.90;;;;;;5024682;28;20199;-82
2022/10/20 07:16:32;;;;;;;15.10;12.00;;;11.80;99.90;;;;;;5026036;28;20459;-86
2022/10/20 07:19:00;;;;;;;13.07;11.33;;;11.80;99.90;;;;;;5033743;28;20213;-84
2022/10/20 07:21:29;;;;;;;13.03;11.20;;;11.90;99.90;;;;;;5021005;28;20231;-84
2022/10/20 07:23:58;;;;;;;12.20;10.23;;;12.00;99.90;;;;;;5023157;28;20234;-88
2022/10/20 07:26:27;;;;;;;13.13;11.20;;;12.20;99.90;;;;;;5030370;28;20565;-85
2022/10/20 07:28:57;;;;;;;15.70;12.27;;;12.40;99.90;;;;;;5025655;28;20219;-85
2022/10/20 07:31:33;;;;;;;17.80;16.10;;;12.60;99.90;;;;;;5030710;28;20194;-86
2022/10/20 07:34:10;;;;;;;18.13;16.63;;;12.90;99.90;;;;;;5023602;28;20208;-82
2022/10/20 07:36:41;;;;;;;16.40;14.07;;;13.10;99.90;;;;;;5026009;28;20207;-83
2022/10/20 07:39:13;;;;;;;18.27;16.77;;;13.40;99.90;;;;;;5028842;28;20223;-83
2022/10/20 07:41:42;;;;;;;16.03;14.43;;;13.50;99.90;;;;;;5038482;28;20216;-84
2022/10/20 07:44:13;;;;;;;16.90;15.03;;;13.70;99.90;;;;;;5038560;28;20227;-83
2022/10/20 07:46:41;;;;;;;15.43;11.43;;;13.70;99.90;;;;;;5031368;28;20210;-85
2022/10/20 07:49:08;;;;;;;12.53;10.17;;;13.60;99.90;;;;;;5033497;28;20654;-85
2022/10/20 07:51:35;;;;;;;11.53;10.33;;;13.60;99.90;;;;;;5037661;28;20210;-84
2022/10/20 07:54:05;;;;;;;15.70;10.20;;;13.90;99.90;;;;;;5041656;28;20209;-83
2022/10/20 07:56:37;;;;;;;11.30;9.90;;;14.20;99.90;;;;;;5040696;28;20668;-83
2022/10/20 07:59:04;;;;;;;11.67;10.47;;;14.50;99.90;;;;;;5039273;28;20223;-84
2022/10/20 08:01:31;;;;;;;14.60;13.07;;;14.70;99.90;;;;;;5037983;28;20636;-85
2022/10/20 08:04:00;;;;;;;11.77;9.30;;;14.70;99.90;;;;;;5036417;28;20229;-83
2022/10/20 08:06:26;;;;;;;11.87;10.23;;;14.70;99.90;;;;;;5031568;28;20206;-83
2022/10/20 08:08:54;;;;;;;10.27;9.17;;;14.80;99.90;;;;;;5063925;22;20238;-75
2022/10/20 08:11:21;;;;;;;10.90;9.23;;;14.90;99.90;;;;;;5109858;28;20220;-76
2022/10/20 08:13:48;;;;;;;10.80;9.73;;;15.20;99.90;;;;;;5112478;28;20194;-76
2022/10/20 08:16:16;;;;;;;12.70;11.60;;;15.50;99.90;;;;;;5113486;28;20196;-76
2022/10/20 08:18:42;;;;;;;10.70;9.80;;;15.70;99.90;;;;;;5105300;28;20205;-76
2022/10/20 08:21:14;;;;;;;11.60;8.70;;;15.90;99.90;;;;;;5092410;28;20189;-76
2022/10/20 08:23:44;;;;;;;9.90;8.33;;;15.90;99.90;;;;;;5071243;28;20209;-76
2022/10/20 08:26:12;;;;;;;8.93;7.73;;;15.90;99.90;;;;;;5082589;28;20192;-76
2022/10/20 08:28:38;;;;;;;9.53;7.77;;;16.10;99.90;;;;;;5089575;28;20670;-76
2022/10/20 08:31:07;;;;;;;11.97;10.97;;;16.20;99.90;;;;;;5071441;28;20222;-76
2022/10/20 08:33:35;;;;;;;14.90;13.70;;;16.40;99.90;;;;;;5068990;28;20202;-76
2022/10/20 08:36:03;;;;;;;14.33;13.33;;;16.40;99.90;;;;;;5092396;28;20212;-76
2022/10/20 08:38:31;;;;;;;8.67;7.57;;;16.70;99.90;;;;;;5069382;28;20255;-77
2022/10/20 08:40:59;;;;;;;13.30;12.20;;;17.00;99.90;;;;;;5072494;28;20224;-76
2022/10/20 08:43:28;;;;;;;12.53;11.53;;;17.30;99.90;;;;;;5068198;28;20267;-77
2022/10/20 08:45:55;;;;;;;11.83;10.70;;;17.40;99.90;;;;;;5089222;28;20193;-77
2022/10/20 08:48:24;;;;;;;15.83;14.63;;;17.30;99.90;;;;;;5086026;28;20187;-77
2022/10/20 08:50:52;;;;;;;9.17;7.00;;;17.40;99.90;;;;;;5076049;28;20218;-77
2022/10/20 08:53:23;;;;;;;10.17;7.50;;;17.50;99.90;;;;;;5065395;28;20213;-77
2022/10/20 08:55:52;;;;;;;7.77;6.97;;;17.60;99.90;;;;;;5075309;28;20231;-77
2022/10/20 08:58:21;;;;;;;8.00;7.20;;;17.80;99.90;;;;;;5070898;28;20209;-77
2022/10/20 09:00:55;;;;;;;7.43;6.40;;;18.00;99.90;;;;;;5089222;28;20599;-77
2022/10/20 09:03:26;;;;;;;7.90;7.10;;;18.20;99.90;;;;;;5067578;28;20216;-77
2022/10/20 09:05:58;;;;;;;8.17;6.33;;;18.10;99.90;;;;;;5068016;28;20188;-77
2022/10/20 09:08:28;;;;;;;11.67;7.57;;;17.90;99.90;;;;;;5076217;28;20667;-77
2022/10/20 09:10:56;;;;;;;7.83;6.27;;;17.80;99.90;;;;;;5067709;28;20226;-77
2022/10/20 09:13:27;;;;;;;6.80;6.10;;;17.80;99.90;;;;;;5067859;28;20197;-77
2022/10/20 09:15:59;;;;;;;11.17;10.17;;;17.70;99.90;;;;;;5087242;28;20192;-77
2022/10/20 09:18:26;;;;;;;8.03;6.50;;;17.70;99.90;;;;;;5090590;28;20735;-77
2022/10/20 09:20:55;;;;;;;8.57;6.53;;;17.70;99.90;;;;;;5086123;28;20618;-77
2022/10/20 09:23:24;;;;;;;6.53;5.87;;;17.90;99.90;;;;;;5091267;28;20771;-77
2022/10/20 09:25:53;;;;;;;13.60;12.50;;;18.20;99.90;;;;;;5069700;28;20669;-77
2022/10/20 09:28:26;;;;;;;6.63;5.17;;;18.20;99.90;;;;;;5075771;28;20226;-77
2022/10/20 09:30:53;;;;;;;11.77;10.87;;;18.10;99.90;;;;;;5073479;28;20224;-78
2022/10/20 09:33:22;;;;;;;6.37;5.53;;;18.20;99.90;;;;;;5068430;28;20201;-77
2022/10/20 09:35:51;;;;;;;7.37;5.90;;;18.40;99.90;;;;;;5073357;28;20203;-77
2022/10/20 09:38:21;;;;;;;12.37;11.50;;;18.30;99.90;;;;;;5068050;28;20234;-77
2022/10/20 09:40:58;;;;;;;6.13;5.53;;;18.40;99.90;;;;;;5065674;28;20232;-78
2022/10/20 09:43:27;;;;;;;5.77;5.23;;;18.50;99.90;;;;;;5071832;28;20228;-77
2022/10/20 09:45:58;;;;;;;5.70;5.00;;;18.40;99.90;;;;;;5068178;28;20749;-77
2022/10/20 09:48:28;;;;;;;4.90;4.50;;;18.30;99.90;;;;;;5093863;28;20201;-77
2022/10/20 09:50:57;;;;;;;6.87;5.40;;;18.40;99.90;;;;;;5094310;28;20208;-78
2022/10/20 09:53:27;;;;;;;5.97;4.80;;;18.40;99.90;;;;;;5075889;28;20197;-78
2022/10/20 09:55:55;;;;;;;5.70;4.90;;;18.40;99.90;;;;;;5093940;28;20192;-77
2022/10/20 09:58:27;;;;;;;5.40;4.70;;;18.40;99.90;;;;;;5093705;28;20209;-77
2022/10/20 10:00:57;;;;;;;5.33;4.73;;;18.30;99.90;;;;;;5094594;28;20223;-77
2022/10/20 10:03:25;;;;;;;5.57;5.07;;;18.40;99.90;;;;;;5093924;28;20257;-77
2022/10/20 10:05:53;;;;;;;5.80;5.20;;;18.30;99.90;;;;;;5074288;28;20227;-77
2022/10/20 10:08:22;;;;;;;5.60;5.03;;;18.40;99.90;;;;;;5075190;28;20220;-77
2022/10/20 10:10:59;;;;;;;10.20;9.30;;;18.40;99.90;;;;;;5094483;28;20271;-77
2022/10/20 10:13:30;;;;;;;11.47;10.40;;;18.60;99.90;;;;;;5094349;28;20239;-77
2022/10/20 10:16:02;;;;;;;10.07;9.37;;;18.60;99.90;;;;;;5086222;28;20205;-77
2022/10/20 10:18:29;;;;;;;12.17;11.37;;;18.70;99.90;;;;;;5089279;28;20255;-77
2022/10/20 10:21:03;;;;;;;12.87;11.87;;;18.70;99.90;;;;;;5086430;28;20221;-77
2022/10/20 10:23:35;;;;;;;13.50;12.60;;;18.80;99.90;;;;;;5087940;28;20214;-77
2022/10/20 10:26:02;;;;;;;6.60;5.40;;;19.10;99.90;;;;;;5091066;28;20198;-77
2022/10/20 10:28:34;;;;;;;9.80;8.90;;;19.20;99.90;;;;;;5086245;28;20606;-78
2022/10/20 10:31:22;;;;;;;5.93;5.43;;;19.40;99.90;;;;;;5090077;28;20209;-78
2022/10/20 10:33:52;;;;;;;8.43;5.53;;;19.60;99.90;;;;;;5088971;28;20221;-77
2022/10/20 10:36:29;;;;;;;5.60;5.00;;;19.70;99.90;;;;;;5067154;28;20201;-77
2022/10/20 10:38:57;;;;;;;7.07;4.80;;;19.70;99.90;;;;;;5088630;28;20589;-77
2022/10/20 10:41:41;;;;;;;8.47;6.20;;;19.80;99.90;;;;;;5067176;28;20197;-77
2022/10/20 10:44:15;;;;;;;7.27;4.80;;;19.80;99.90;;;;;;5086585;28;20205;-77
2022/10/20 10:46:57;;;;;;;6.23;5.50;;;19.70;99.90;;;;;;5063951;28;20246;-77
2022/10/20 10:49:37;;;;;;;5.40;4.90;;;19.40;99.90;;;;;;5092719;28;20647;-77
2022/10/20 10:52:17;;;;;;;7.53;5.47;;;19.30;99.90;;;;;;5086488;28;20240;-77
2022/10/20 10:54:58;;;;;;;7.30;6.60;;;19.20;99.90;;;;;;5089848;28;20677;-77
2022/10/20 10:57:31;;;;;;;6.73;6.10;;;19.00;99.90;;;;;;5086071;28;20687;-78
2022/10/20 11:00:02;;;;;;;6.73;6.13;;;18.90;99.90;;;;;;5091338;28;20221;-77
2022/10/20 11:03:05;;;;;;;5.43;4.90;;;18.90;99.90;;;;;;5075003;28;20304;-77
2022/10/20 11:05:55;;;;;;;6.10;5.13;;;18.80;99.90;;;;;;5091484;28;20189;-77
2022/10/20 11:08:31;;;;;;;5.70;5.03;;;18.80;99.90;;;;;;5093817;28;20194;-77
2022/10/20 11:11:08;;;;;;;5.17;4.67;;;18.90;99.90;;;;;;5096763;28;20229;-77
2022/10/20 11:13:40;;;;;;;5.80;5.20;;;18.90;99.90;;;;;;5095121;28;20190;-79
2022/10/20 11:16:21;;;;;;;5.33;4.83;;;18.90;99.90;;;;;;5088259;28;20197;-79
2022/10/20 11:19:10;;;;;;;6.07;4.80;;;18.90;99.90;;;;;;5074162;28;20193;-78
2022/10/20 11:21:43;;;;;;;5.10;4.60;;;19.00;99.90;;;;;;5071428;28;20205;-79
2022/10/20 11:24:27;;;;;;;5.03;4.40;;;19.10;99.90;;;;;;5087137;28;20295;-78
2022/10/20 11:27:02;;;;;;;4.67;4.27;;;19.30;99.90;;;;;;5073263;28;20208;-78
2022/10/20 11:29:32;;;;;;;5.97;4.57;;;19.30;99.90;;;;;;5078399;28;20221;-78
2022/10/20 11:32:11;;;;;;;7.53;4.40;;;19.50;99.90;;;;;;5069753;28;20613;-78
2022/10/20 11:34:50;;;;;;;6.27;5.20;;;19.60;99.90;;;;;;5095053;28;20224;-81
2022/10/20 11:37:23;;;;;;;7.73;5.50;;;19.60;99.90;;;;;;5081020;28;20212;-76
2022/10/20 11:39:55;;;;;;;7.07;5.37;;;19.60;99.90;;;;;;5071717;28;20245;-76
2022/10/20 11:42:31;;;;;;;6.63;5.03;;;19.70;99.90;;;;;;5098718;28;21039;-76
2022/10/20 11:45:01;;;;;;;6.67;4.97;;;19.70;99.90;;;;;;5089640;28;20283;-77
2022/10/20 11:47:36;;;;;;;9.50;8.70;;;19.80;99.90;;;;;;5098818;28;20206;-76
2022/10/20 11:50:05;;;;;;;6.20;4.80;;;19.80;99.90;;;;;;5095244;28;20278;-77
2022/10/20 11:53:08;;;;;;;7.23;6.63;;;19.90;99.90;;;;;;5071207;28;20227;-77
2022/10/20 11:55:54;;;;;;;7.50;6.87;;;19.70;99.90;;;;;;5089966;28;20235;-77
2022/10/20 11:58:43;;;;;;;5.80;4.33;;;19.50;99.90;;;;;;5096285;28;20236;-79
2022/10/20 12:01:31;;;;;;;5.53;4.40;;;19.30;99.90;;;;;;5072957;28;20194;-77
2022/10/20 12:04:37;;;;;;;6.53;4.47;;;19.10;99.90;;;;;;5102785;28;20213;-77
2022/10/20 12:07:42;;;;;;;5.87;5.00;;;18.90;99.90;;;;;;5025294;28;20203;-78
2022/10/20 12:10:28;;;;;;;6.57;6.07;;;18.80;99.90;;;;;;5088412;28;20244;-77
2022/10/20 12:13:06;;;;;;;5.23;4.53;;;18.60;99.90;;;;;;5083833;28;20267;-77
2022/10/20 12:15:33;;;;;;;9.87;4.53;;;18.60;99.90;;;;;;5075013;28;20209;-77
2022/10/20 12:18:05;;;;;;;5.13;4.57;;;18.70;99.90;;;;;;5076124;28;20677;-77
2022/10/20 12:21:01;;;;;;;4.53;4.13;;;18.80;99.90;;;;;;5092808;28;20207;-78
2022/10/20 12:23:53;;;;;;;5.03;4.10;;;18.90;99.90;;;;;;5093491;28;20216;-76
2022/10/20 12:26:55;;;;;;;4.30;3.87;;;19.00;99.90;;;;;;5094836;28;20196;-77
2022/10/20 12:29:47;;;;;;;11.77;5.10;;;19.10;99.90;;;;;;5074960;28;20220;-77
2022/10/20 12:32:56;;;;;;;7.93;4.77;;;19.00;99.90;;;;;;5094584;28;20205;-77
2022/10/20 12:35:58;;;;;;;5.57;4.70;;;18.90;99.90;;;;;;5083994;28;20233;-77
2022/10/20 12:38:28;;;;;;;4.83;4.30;;;18.80;99.90;;;;;;5067468;28;20619;-77
2022/10/20 12:40:59;;;;;;;5.10;4.13;;;18.80;99.90;;;;;;5087913;28;20267;-77
2022/10/20 12:43:33;;;;;;;7.50;4.80;;;18.70;99.90;;;;;;5078451;28;20230;-77
2022/10/20 12:46:07;;;;;;;8.37;4.73;;;18.60;99.90;;;;;;5075284;28;20234;-77
2022/10/20 12:48:40;;;;;;;6.77;4.30;;;18.60;99.90;;;;;;5066985;28;20209;-76
2022/10/20 12:51:16;;;;;;;11.33;10.57;;;18.50;99.90;;;;;;5083858;28;20217;-76
2022/10/20 12:53:53;;;;;;;9.77;8.77;;;18.40;99.90;;;;;;5088205;28;20669;-76
2022/10/20 12:56:21;;;;;;;5.60;4.50;;;18.30;99.90;;;;;;5083625;28;20275;-76
2022/10/20 12:59:23;;;;;;;5.33;4.63;;;18.20;99.90;;;;;;5068894;28;20348;-76
2022/10/20 13:02:40;;;;;;;12.90;11.80;;;18.20;99.90;;;;;;5078272;28;20257;-75
2022/10/20 13:05:40;;;;;;;9.47;8.63;;;18.20;99.90;;;;;;5064891;28;20228;-75
2022/10/20 13:08:36;;;;;;;10.87;10.10;;;18.30;99.90;;;;;;5084227;28;20226;-75
2022/10/20 13:11:43;;;;;;;5.20;4.70;;;18.30;99.90;;;;;;5062541;28;20721;-75
2022/10/20 13:14:55;;;;;;;5.47;4.67;;;18.30;99.90;;;;;;5063994;28;20217;-75
2022/10/20 13:17:34;;;;;;;5.10;4.17;;;18.30;99.90;;;;;;5048730;28;20260;-75